sensor_id;sensor_type;location;lat;lon;timestamp;temperature;humidity
67275;DHT22;55463;52.324;5.122;2024-03-23T00:55:23;6.69;98.55
67275;DHT22;55463;52.324;5.122;2024-03-23T00:57:49;6.66;98.48
67275;DHT22;55463;52.324;5.122;2024-03-23T01:00:14;6.65;98.78
67275;DHT22;55463;52.324;5.122;2024-03-23T01:02:41;6.64;98.68
67275;DHT22;55463;52.324;5.122;2024-03-23T01:05:06;6.58;99.08
67275;DHT22;55463;52.324;5.122;2024-03-23T01:07:31;6.62;98.81
67275;DHT22;55463;52.324;5.122;2024-03-23T01:09:57;6.58;99.04
67275;DHT22;55463;52.324;5.122;2024-03-23T01:12:22;6.55;98.90
67275;DHT22;55463;52.324;5.122;2024-03-23T01:14:48;6.53;99.11
67275;DHT22;55463;52.324;5.122;2024-03-23T01:17:13;6.53;99.24
67275;DHT22;55463;52.324;5.122;2024-03-23T01:19:38;6.49;99.22
67275;DHT22;55463;52.324;5.122;2024-03-23T01:22:04;6.48;99.11
67275;DHT22;55463;52.324;5.122;2024-03-23T01:24:30;6.41;99.12
67275;DHT22;55463;52.324;5.122;2024-03-23T01:26:55;6.41;99.01
67275;DHT22;55463;52.324;5.122;2024-03-23T01:29:20;6.39;99.49
67275;DHT22;55463;52.324;5.122;2024-03-23T01:31:46;6.39;99.33
67275;DHT22;55463;52.324;5.122;2024-03-23T01:34:11;6.38;99.15
67275;DHT22;55463;52.324;5.122;2024-03-23T01:36:37;6.34;99.63
67275;DHT22;55463;52.324;5.122;2024-03-23T01:39:03;6.32;99.22
67275;DHT22;55463;52.324;5.122;2024-03-23T01:41:28;6.28;99.42
67275;DHT22;55463;52.324;5.122;2024-03-23T01:43:55;6.25;99.10
67275;DHT22;55463;52.324;5.122;2024-03-23T01:46:21;6.25;99.26
67275;DHT22;55463;52.324;5.122;2024-03-23T01:48:47;6.22;99.24
67275;DHT22;55463;52.324;5.122;2024-03-23T01:51:13;6.17;99.33
67275;DHT22;55463;52.324;5.122;2024-03-23T01:53:39;6.11;99.35
67275;DHT22;55463;52.324;5.122;2024-03-23T01:56:05;6.10;99.62
67275;DHT22;55463;52.324;5.122;2024-03-23T01:58:30;6.09;99.52
67275;DHT22;55463;52.324;5.122;2024-03-23T02:00:57;6.07;99.54
67275;DHT22;55463;52.324;5.122;2024-03-23T02:03:27;6.06;99.38
67275;DHT22;55463;52.324;5.122;2024-03-23T02:05:53;6.03;99.85
67275;DHT22;55463;52.324;5.122;2024-03-23T02:08:20;6.00;99.72
67275;DHT22;55463;52.324;5.122;2024-03-23T02:10:46;6.02;99.95
67275;DHT22;55463;52.324;5.122;2024-03-23T02:13:13;5.99;99.61
67275;DHT22;55463;52.324;5.122;2024-03-23T02:15:39;5.97;99.70
67275;DHT22;55463;52.324;5.122;2024-03-23T02:18:06;5.92;99.59
67275;DHT22;55463;52.324;5.122;2024-03-23T02:20:32;5.94;99.50
67275;DHT22;55463;52.324;5.122;2024-03-23T02:22:57;5.94;99.25
67275;DHT22;55463;52.324;5.122;2024-03-23T02:25:22;5.92;99.36
67275;DHT22;55463;52.324;5.122;2024-03-23T02:27:48;5.90;99.16
67275;DHT22;55463;52.324;5.122;2024-03-23T02:30:13;5.89;99.40
67275;DHT22;55463;52.324;5.122;2024-03-23T02:32:39;5.87;99.34
67275;DHT22;55463;52.324;5.122;2024-03-23T02:35:04;5.86;98.99
67275;DHT22;55463;52.324;5.122;2024-03-23T02:37:30;5.82;99.18
67275;DHT22;55463;52.324;5.122;2024-03-23T02:39:55;5.80;99.19
67275;DHT22;55463;52.324;5.122;2024-03-23T02:42:20;5.82;99.09
67275;DHT22;55463;52.324;5.122;2024-03-23T02:44:46;5.79;99.16
67275;DHT22;55463;52.324;5.122;2024-03-23T02:47:12;5.76;98.94
67275;DHT22;55463;52.324;5.122;2024-03-23T02:49:37;5.70;98.85
67275;DHT22;55463;52.324;5.122;2024-03-23T02:52:03;5.63;98.76
67275;DHT22;55463;52.324;5.122;2024-03-23T02:54:28;5.62;98.60
67275;DHT22;55463;52.324;5.122;2024-03-23T02:56:54;5.55;98.50
67275;DHT22;55463;52.324;5.122;2024-03-23T02:59:19;5.55;98.52
67275;DHT22;55463;52.324;5.122;2024-03-23T03:01:44;5.51;98.33
67275;DHT22;55463;52.324;5.122;2024-03-23T03:04:10;5.45;98.30
67275;DHT22;55463;52.324;5.122;2024-03-23T03:06:35;5.42;98.08
67275;DHT22;55463;52.324;5.122;2024-03-23T03:09:00;5.41;97.97
67275;DHT22;55463;52.324;5.122;2024-03-23T03:11:26;5.44;97.84
67275;DHT22;55463;52.324;5.122;2024-03-23T03:13:51;5.42;97.64
67275;DHT22;55463;52.324;5.122;2024-03-23T03:16:17;5.40;97.50
67275;DHT22;55463;52.324;5.122;2024-03-23T03:18:42;5.40;97.44
67275;DHT22;55463;52.324;5.122;2024-03-23T03:21:08;5.35;97.45
67275;DHT22;55463;52.324;5.122;2024-03-23T03:23:39;5.34;97.44
67275;DHT22;55463;52.324;5.122;2024-03-23T03:26:05;5.34;97.32
67275;DHT22;55463;52.324;5.122;2024-03-23T03:28:31;5.35;97.30
67275;DHT22;55463;52.324;5.122;2024-03-23T03:30:58;5.37;97.20
67275;DHT22;55463;52.324;5.122;2024-03-23T03:33:24;5.37;97.16
67275;DHT22;55463;52.324;5.122;2024-03-23T03:35:49;5.34;97.13
67275;DHT22;55463;52.324;5.122;2024-03-23T03:38:16;5.31;96.98
67275;DHT22;55463;52.324;5.122;2024-03-23T03:40:42;5.32;96.99
67275;DHT22;55463;52.324;5.122;2024-03-23T03:43:07;5.30;96.83
67275;DHT22;55463;52.324;5.122;2024-03-23T03:45:33;5.28;96.85
67275;DHT22;55463;52.324;5.122;2024-03-23T03:47:58;5.26;96.87
67275;DHT22;55463;52.324;5.122;2024-03-23T03:50:24;5.23;96.91
67275;DHT22;55463;52.324;5.122;2024-03-23T03:52:50;5.20;96.99
67275;DHT22;55463;52.324;5.122;2024-03-23T03:55:15;5.19;96.95
67275;DHT22;55463;52.324;5.122;2024-03-23T03:57:41;5.23;96.91
67275;DHT22;55463;52.324;5.122;2024-03-23T04:00:07;5.24;97.03
67275;DHT22;55463;52.324;5.122;2024-03-23T04:02:39;5.26;97.07
67275;DHT22;55463;52.324;5.122;2024-03-23T04:05:05;5.27;97.06
67275;DHT22;55463;52.324;5.122;2024-03-23T04:07:31;5.27;96.90
67275;DHT22;55463;52.324;5.122;2024-03-23T04:09:56;5.30;96.64
67275;DHT22;55463;52.324;5.122;2024-03-23T04:12:22;5.27;96.63
67275;DHT22;55463;52.324;5.122;2024-03-23T04:14:48;5.26;96.45
67275;DHT22;55463;52.324;5.122;2024-03-23T04:17:13;5.26;96.32
67275;DHT22;55463;52.324;5.122;2024-03-23T04:19:39;5.24;96.35
67275;DHT22;55463;52.324;5.122;2024-03-23T04:22:04;5.20;96.28
67275;DHT22;55463;52.324;5.122;2024-03-23T04:24:30;5.17;96.33
67275;DHT22;55463;52.324;5.122;2024-03-23T04:26:55;5.20;96.26
67275;DHT22;55463;52.324;5.122;2024-03-23T04:29:21;5.20;96.18
67275;DHT22;55463;52.324;5.122;2024-03-23T04:31:46;5.17;96.11
67275;DHT22;55463;52.324;5.122;2024-03-23T04:34:12;5.14;96.12
67275;DHT22;55463;52.324;5.122;2024-03-23T04:36:38;5.13;96.15
67275;DHT22;55463;52.324;5.122;2024-03-23T04:39:03;5.13;96.11
67275;DHT22;55463;52.324;5.122;2024-03-23T04:41:29;5.13;96.17
67275;DHT22;55463;52.324;5.122;2024-03-23T04:43:55;5.13;96.13
67275;DHT22;55463;52.324;5.122;2024-03-23T04:46:20;5.13;96.22
67275;DHT22;55463;52.324;5.122;2024-03-23T04:48:46;5.14;96.20
67275;DHT22;55463;52.324;5.122;2024-03-23T04:51:20;5.10;96.20
67275;DHT22;55463;52.324;5.122;2024-03-23T04:53:46;5.09;96.21
67275;DHT22;55463;52.324;5.122;2024-03-23T04:56:13;5.09;96.18
67275;DHT22;55463;52.324;5.122;2024-03-23T04:58:38;5.07;96.16
67275;DHT22;55463;52.324;5.122;2024-03-23T05:01:04;5.07;96.24
67275;DHT22;55463;52.324;5.122;2024-03-23T05:03:29;5.01;96.18
67275;DHT22;55463;52.324;5.122;2024-03-23T05:05:54;5.01;96.25
67275;DHT22;55463;52.324;5.122;2024-03-23T05:08:20;4.99;96.19
67275;DHT22;55463;52.324;5.122;2024-03-23T05:10:45;4.99;96.23
67275;DHT22;55463;52.324;5.122;2024-03-23T05:13:11;4.97;96.26
67275;DHT22;55463;52.324;5.122;2024-03-23T05:15:37;4.97;96.24
67275;DHT22;55463;52.324;5.122;2024-03-23T05:18:04;4.93;96.37
67275;DHT22;55463;52.324;5.122;2024-03-23T05:20:30;4.96;96.44
67275;DHT22;55463;52.324;5.122;2024-03-23T05:22:56;4.97;96.33
67275;DHT22;55463;52.324;5.122;2024-03-23T05:25:21;4.93;96.44
67275;DHT22;55463;52.324;5.122;2024-03-23T05:27:47;4.90;96.47
67275;DHT22;55463;52.324;5.122;2024-03-23T05:30:13;4.92;96.51
67275;DHT22;55463;52.324;5.122;2024-03-23T05:32:39;4.93;96.59
67275;DHT22;55463;52.324;5.122;2024-03-23T05:35:07;4.92;96.73
67275;DHT22;55463;52.324;5.122;2024-03-23T05:37:33;4.96;96.78
67275;DHT22;55463;52.324;5.122;2024-03-23T05:39:59;5.03;96.79
67275;DHT22;55463;52.324;5.122;2024-03-23T05:42:25;5.07;96.99
67275;DHT22;55463;52.324;5.122;2024-03-23T05:44:50;5.07;97.14
67275;DHT22;55463;52.324;5.122;2024-03-23T05:47:16;5.09;97.10
67275;DHT22;55463;52.324;5.122;2024-03-23T05:49:42;5.10;96.88
67275;DHT22;55463;52.324;5.122;2024-03-23T05:52:08;5.07;96.91
67275;DHT22;55463;52.324;5.122;2024-03-23T05:54:34;5.09;96.89
67275;DHT22;55463;52.324;5.122;2024-03-23T05:56:59;5.07;96.94
67275;DHT22;55463;52.324;5.122;2024-03-23T05:59:25;5.12;96.98
67275;DHT22;55463;52.324;5.122;2024-03-23T06:01:50;5.10;97.11
67275;DHT22;55463;52.324;5.122;2024-03-23T06:04:15;5.10;97.08
67275;DHT22;55463;52.324;5.122;2024-03-23T06:06:41;5.12;97.03
67275;DHT22;55463;52.324;5.122;2024-03-23T06:09:07;5.14;97.01
67275;DHT22;55463;52.324;5.122;2024-03-23T06:11:32;5.17;97.13
67275;DHT22;55463;52.324;5.122;2024-03-23T06:13:57;5.23;97.03
67275;DHT22;55463;52.324;5.122;2024-03-23T06:16:23;5.30;97.12
67275;DHT22;55463;52.324;5.122;2024-03-23T06:18:52;5.32;96.94
67275;DHT22;55463;52.324;5.122;2024-03-23T06:21:17;5.38;96.92
67275;DHT22;55463;52.324;5.122;2024-03-23T06:23:43;5.45;96.87
67275;DHT22;55463;52.324;5.122;2024-03-23T06:26:13;5.48;96.73
67275;DHT22;55463;52.324;5.122;2024-03-23T06:28:38;5.54;96.75
67275;DHT22;55463;52.324;5.122;2024-03-23T06:31:09;5.56;96.74
67275;DHT22;55463;52.324;5.122;2024-03-23T06:33:34;5.60;96.66
67275;DHT22;55463;52.324;5.122;2024-03-23T06:36:00;5.68;96.64
67275;DHT22;55463;52.324;5.122;2024-03-23T06:38:25;5.70;96.66
67275;DHT22;55463;52.324;5.122;2024-03-23T06:40:51;5.76;96.44
67275;DHT22;55463;52.324;5.122;2024-03-23T06:43:18;5.80;96.41
67275;DHT22;55463;52.324;5.122;2024-03-23T06:45:43;5.87;96.09
67275;DHT22;55463;52.324;5.122;2024-03-23T06:48:09;5.93;96.14
67275;DHT22;55463;52.324;5.122;2024-03-23T06:50:34;5.96;95.94
67275;DHT22;55463;52.324;5.122;2024-03-23T06:53:00;6.07;95.87
67275;DHT22;55463;52.324;5.122;2024-03-23T06:55:27;6.17;96.15
67275;DHT22;55463;52.324;5.122;2024-03-23T06:57:53;6.28;95.66
67275;DHT22;55463;52.324;5.122;2024-03-23T07:00:18;6.35;95.73
67275;DHT22;55463;52.324;5.122;2024-03-23T07:02:44;6.42;95.46
67275;DHT22;55463;52.324;5.122;2024-03-23T07:05:10;6.49;95.78
67275;DHT22;55463;52.324;5.122;2024-03-23T07:07:37;6.53;95.70
67275;DHT22;55463;52.324;5.122;2024-03-23T07:10:04;6.58;95.35
67275;DHT22;55463;52.324;5.122;2024-03-23T07:12:30;6.59;95.34
67275;DHT22;55463;52.324;5.122;2024-03-23T07:14:55;6.65;93.99
67275;DHT22;55463;52.324;5.122;2024-03-23T07:17:20;6.79;94.78
67275;DHT22;55463;52.324;5.122;2024-03-23T07:19:46;6.90;95.08
67275;DHT22;55463;52.324;5.122;2024-03-23T07:22:11;6.87;94.55
67275;DHT22;55463;52.324;5.122;2024-03-23T07:24:36;6.86;94.44
67275;DHT22;55463;52.324;5.122;2024-03-23T07:27:04;6.87;94.31
67275;DHT22;55463;52.324;5.122;2024-03-23T07:29:30;6.96;93.92
67275;DHT22;55463;52.324;5.122;2024-03-23T07:31:55;7.03;93.77
67275;DHT22;55463;52.324;5.122;2024-03-23T07:34:20;7.13;94.51
67275;DHT22;55463;52.324;5.122;2024-03-23T07:36:46;7.24;94.38
67275;DHT22;55463;52.324;5.122;2024-03-23T07:39:11;7.35;94.62
67275;DHT22;55463;52.324;5.122;2024-03-23T07:41:37;7.42;93.32
67275;DHT22;55463;52.324;5.122;2024-03-23T07:44:02;7.52;93.91
67275;DHT22;55463;52.324;5.122;2024-03-23T07:46:28;7.66;93.00
67275;DHT22;55463;52.324;5.122;2024-03-23T07:48:53;7.73;92.72
67275;DHT22;55463;52.324;5.122;2024-03-23T07:51:23;7.75;92.79
67275;DHT22;55463;52.324;5.122;2024-03-23T07:53:48;7.89;92.66
67275;DHT22;55463;52.324;5.122;2024-03-23T07:56:14;7.94;92.50
67275;DHT22;55463;52.324;5.122;2024-03-23T07:58:41;8.00;91.88
67275;DHT22;55463;52.324;5.122;2024-03-23T08:01:13;7.94;90.77
67275;DHT22;55463;52.324;5.122;2024-03-23T08:03:45;8.01;92.37
67275;DHT22;55463;52.324;5.122;2024-03-23T08:06:18;8.00;89.75
67275;DHT22;55463;52.324;5.122;2024-03-23T08:08:54;7.90;89.61
67275;DHT22;55463;52.324;5.122;2024-03-23T08:11:26;7.80;89.35
67275;DHT22;55463;52.324;5.122;2024-03-23T08:13:52;7.87;89.84
67275;DHT22;55463;52.324;5.122;2024-03-23T08:16:17;8.07;90.17
67275;DHT22;55463;52.324;5.122;2024-03-23T08:18:42;8.49;90.24
67275;DHT22;55463;52.324;5.122;2024-03-23T08:21:08;8.90;88.40
67275;DHT22;55463;52.324;5.122;2024-03-23T08:23:34;9.31;88.92
67275;DHT22;55463;52.324;5.122;2024-03-23T08:26:04;9.05;86.62
67275;DHT22;55463;52.324;5.122;2024-03-23T08:28:29;8.80;85.60
67275;DHT22;55463;52.324;5.122;2024-03-23T08:30:56;8.69;86.45
67275;DHT22;55463;52.324;5.122;2024-03-23T08:33:22;9.05;85.95
67275;DHT22;55463;52.324;5.122;2024-03-23T08:36:01;9.22;87.14
67275;DHT22;55463;52.324;5.122;2024-03-23T08:38:28;9.50;84.94
67275;DHT22;55463;52.324;5.122;2024-03-23T08:40:57;9.50;83.78
67275;DHT22;55463;52.324;5.122;2024-03-23T08:43:23;9.65;84.79
67275;DHT22;55463;52.324;5.122;2024-03-23T08:45:48;9.73;84.19
67275;DHT22;55463;52.324;5.122;2024-03-23T08:48:14;9.87;83.91
67275;DHT22;55463;52.324;5.122;2024-03-23T08:50:39;9.49;82.52
67275;DHT22;55463;52.324;5.122;2024-03-23T08:53:05;9.38;82.89
67275;DHT22;55463;52.324;5.122;2024-03-23T08:55:30;10.00;85.20
67275;DHT22;55463;52.324;5.122;2024-03-23T08:57:55;10.36;82.86
67275;DHT22;55463;52.324;5.122;2024-03-23T09:00:21;10.80;83.46
67275;DHT22;55463;52.324;5.122;2024-03-23T09:02:48;10.96;80.23
67275;DHT22;55463;52.324;5.122;2024-03-23T09:05:13;10.36;78.28
67275;DHT22;55463;52.324;5.122;2024-03-23T09:07:39;10.05;82.02
67275;DHT22;55463;52.324;5.122;2024-03-23T09:10:04;9.63;82.17
67275;DHT22;55463;52.324;5.122;2024-03-23T09:12:30;9.11;82.44
67275;DHT22;55463;52.324;5.122;2024-03-23T09:14:55;9.00;84.88
67275;DHT22;55463;52.324;5.122;2024-03-23T09:17:21;8.84;85.75
67275;DHT22;55463;52.324;5.122;2024-03-23T09:19:46;8.60;85.42
67275;DHT22;55463;52.324;5.122;2024-03-23T09:22:11;8.52;86.48
67275;DHT22;55463;52.324;5.122;2024-03-23T09:24:38;8.57;87.49
67275;DHT22;55463;52.324;5.122;2024-03-23T09:27:04;8.67;87.18
67275;DHT22;55463;52.324;5.122;2024-03-23T09:29:29;8.75;88.87
67275;DHT22;55463;52.324;5.122;2024-03-23T09:31:54;9.31;88.30
67275;DHT22;55463;52.324;5.122;2024-03-23T09:34:20;10.17;89.91
67275;DHT22;55463;52.324;5.122;2024-03-23T09:36:45;10.17;86.13
67275;DHT22;55463;52.324;5.122;2024-03-23T09:39:10;10.10;85.63
67275;DHT22;55463;52.324;5.122;2024-03-23T09:41:36;9.67;84.37
67275;DHT22;55463;52.324;5.122;2024-03-23T09:44:02;9.42;85.98
67275;DHT22;55463;52.324;5.122;2024-03-23T09:46:27;9.12;85.34
67275;DHT22;55463;52.324;5.122;2024-03-23T09:48:55;9.34;85.65
67275;DHT22;55463;52.324;5.122;2024-03-23T09:51:21;9.93;86.17
67275;DHT22;55463;52.324;5.122;2024-03-23T09:53:46;10.36;82.62
67275;DHT22;55463;52.324;5.122;2024-03-23T09:56:11;10.67;81.09
67275;DHT22;55463;52.324;5.122;2024-03-23T09:58:37;10.70;79.80
67275;DHT22;55463;52.324;5.122;2024-03-23T10:01:03;10.66;81.56
67275;DHT22;55463;52.324;5.122;2024-03-23T10:03:28;10.38;80.91
67275;DHT22;55463;52.324;5.122;2024-03-23T10:06:03;10.42;80.39
67275;DHT22;55463;52.324;5.122;2024-03-23T10:08:30;10.53;81.63
67275;DHT22;55463;52.324;5.122;2024-03-23T10:10:56;10.50;81.65
67275;DHT22;55463;52.324;5.122;2024-03-23T10:13:28;10.35;81.48
67275;DHT22;55463;52.324;5.122;2024-03-23T10:15:58;10.11;81.31
67275;DHT22;55463;52.324;5.122;2024-03-23T10:18:24;10.00;81.77
67275;DHT22;55463;52.324;5.122;2024-03-23T10:23:31;10.21;80.33
67275;DHT22;55463;52.324;5.122;2024-03-23T10:31:28;10.64;80.94
67275;DHT22;55463;52.324;5.122;2024-03-23T10:33:54;10.81;78.29
67275;DHT22;55463;52.324;5.122;2024-03-23T10:36:24;10.46;79.42
67275;DHT22;55463;52.324;5.122;2024-03-23T10:38:51;10.39;81.15
67275;DHT22;55463;52.324;5.122;2024-03-23T10:41:18;11.15;83.27
67275;DHT22;55463;52.324;5.122;2024-03-23T10:43:45;11.65;81.25
67275;DHT22;55463;52.324;5.122;2024-03-23T10:46:11;12.29;80.85
67275;DHT22;55463;52.324;5.122;2024-03-23T10:48:37;12.75;78.90
67275;DHT22;55463;52.324;5.122;2024-03-23T10:51:04;12.55;75.18
67275;DHT22;55463;52.324;5.122;2024-03-23T10:53:29;12.00;73.72
67275;DHT22;55463;52.324;5.122;2024-03-23T10:55:58;12.11;75.63
67275;DHT22;55463;52.324;5.122;2024-03-23T10:58:27;12.42;75.01
67275;DHT22;55463;52.324;5.122;2024-03-23T11:00:54;12.86;74.62
67275;DHT22;55463;52.324;5.122;2024-03-23T11:03:46;13.18;74.74
67275;DHT22;55463;52.324;5.122;2024-03-23T11:06:35;13.59;74.19
67275;DHT22;55463;52.324;5.122;2024-03-23T11:09:01;13.48;71.08
67275;DHT22;55463;52.324;5.122;2024-03-23T11:11:26;13.88;73.06
67275;DHT22;55463;52.324;5.122;2024-03-23T11:13:54;14.11;70.10
67275;DHT22;55463;52.324;5.122;2024-03-23T11:16:27;13.70;69.51
67275;DHT22;55463;52.324;5.122;2024-03-23T11:18:53;13.31;70.15
67275;DHT22;55463;52.324;5.122;2024-03-23T11:21:51;12.94;71.06
67275;DHT22;55463;52.324;5.122;2024-03-23T11:24:17;12.93;71.98
67275;DHT22;55463;52.324;5.122;2024-03-23T11:26:43;13.14;73.79
67275;DHT22;55463;52.324;5.122;2024-03-23T11:29:13;13.67;72.98
67275;DHT22;55463;52.324;5.122;2024-03-23T11:31:46;14.33;73.78
67275;DHT22;55463;52.324;5.122;2024-03-23T11:34:11;15.21;70.70
67275;DHT22;55463;52.324;5.122;2024-03-23T11:36:37;15.48;71.82
67275;DHT22;55463;52.324;5.122;2024-03-23T11:39:18;14.48;66.84
67275;DHT22;55463;52.324;5.122;2024-03-23T11:41:56;13.59;68.70
67275;DHT22;55463;52.324;5.122;2024-03-23T11:44:23;12.66;69.18
67275;DHT22;55463;52.324;5.122;2024-03-23T11:46:50;12.63;70.35
67275;DHT22;55463;52.324;5.122;2024-03-23T11:51:48;12.13;70.56
67275;DHT22;55463;52.324;5.122;2024-03-23T11:54:13;12.57;72.01
67275;DHT22;55463;52.324;5.122;2024-03-23T11:56:39;12.18;70.14
67275;DHT22;55463;52.324;5.122;2024-03-23T11:59:04;11.94;72.64
67275;DHT22;55463;52.324;5.122;2024-03-23T12:01:30;11.74;72.61
67275;DHT22;55463;52.324;5.122;2024-03-23T12:03:56;11.94;73.41
67275;DHT22;55463;52.324;5.122;2024-03-23T12:06:21;11.61;72.44
67275;DHT22;55463;52.324;5.122;2024-03-23T12:08:47;11.42;72.90
67275;DHT22;55463;52.324;5.122;2024-03-23T12:11:17;11.35;72.44
67275;DHT22;55463;52.324;5.122;2024-03-23T12:13:45;11.25;73.10
67275;DHT22;55463;52.324;5.122;2024-03-23T12:16:20;11.15;73.45
67275;DHT22;55463;52.324;5.122;2024-03-23T12:18:47;10.91;73.40
67275;DHT22;55463;52.324;5.122;2024-03-23T12:21:13;10.64;74.71
67275;DHT22;55463;52.324;5.122;2024-03-23T12:23:41;10.31;75.24
67275;DHT22;55463;52.324;5.122;2024-03-23T12:26:12;10.15;76.56
67275;DHT22;55463;52.324;5.122;2024-03-23T12:28:37;10.18;80.29
67275;DHT22;55463;52.324;5.122;2024-03-23T12:31:03;9.89;80.74
67275;DHT22;55463;52.324;5.122;2024-03-23T12:33:28;9.74;82.07
67275;DHT22;55463;52.324;5.122;2024-03-23T12:35:54;9.36;82.56
67275;DHT22;55463;52.324;5.122;2024-03-23T12:38:19;9.00;83.15
67275;DHT22;55463;52.324;5.122;2024-03-23T12:40:51;8.57;83.48
67275;DHT22;55463;52.324;5.122;2024-03-23T12:43:17;8.38;84.29
67275;DHT22;55463;52.324;5.122;2024-03-23T12:45:49;8.28;84.84
67275;DHT22;55463;52.324;5.122;2024-03-23T12:48:16;8.39;86.98
67275;DHT22;55463;52.324;5.122;2024-03-23T12:50:41;8.34;86.58
67275;DHT22;55463;52.324;5.122;2024-03-23T12:53:07;8.55;87.14
67275;DHT22;55463;52.324;5.122;2024-03-23T12:55:34;8.99;88.03
67275;DHT22;55463;52.324;5.122;2024-03-23T12:58:00;9.45;87.17
67275;DHT22;55463;52.324;5.122;2024-03-23T13:00:25;9.35;84.05
67275;DHT22;55463;52.324;5.122;2024-03-23T13:02:51;9.15;84.45
67275;DHT22;55463;52.324;5.122;2024-03-23T13:05:16;9.10;85.29
67275;DHT22;55463;52.324;5.122;2024-03-23T13:07:41;9.01;85.40
67275;DHT22;55463;52.324;5.122;2024-03-23T13:10:07;8.94;84.32
67275;DHT22;55463;52.324;5.122;2024-03-23T13:12:33;9.08;85.12
67275;DHT22;55463;52.324;5.122;2024-03-23T13:14:59;9.10;85.19
67275;DHT22;55463;52.324;5.122;2024-03-23T13:17:28;9.05;84.44
67275;DHT22;55463;52.324;5.122;2024-03-23T13:19:54;9.07;84.28
67275;DHT22;55463;52.324;5.122;2024-03-23T13:22:21;8.97;82.43
67275;DHT22;55463;52.324;5.122;2024-03-23T13:24:46;8.84;82.69
67275;DHT22;55463;52.324;5.122;2024-03-23T13:27:11;9.21;84.10
67275;DHT22;55463;52.324;5.122;2024-03-23T13:29:37;9.67;83.96
67275;DHT22;55463;52.324;5.122;2024-03-23T13:32:03;10.08;83.90
67275;DHT22;55463;52.324;5.122;2024-03-23T13:34:29;10.31;83.05
67275;DHT22;55463;52.324;5.122;2024-03-23T13:36:55;9.97;80.44
67275;DHT22;55463;52.324;5.122;2024-03-23T13:39:21;9.57;79.49
67275;DHT22;55463;52.324;5.122;2024-03-23T13:41:46;9.55;82.05
67275;DHT22;55463;52.324;5.122;2024-03-23T13:44:13;9.36;81.29
67275;DHT22;55463;52.324;5.122;2024-03-23T13:46:40;9.14;80.74
67275;DHT22;55463;52.324;5.122;2024-03-23T13:49:08;8.97;81.63
67275;DHT22;55463;52.324;5.122;2024-03-23T13:51:46;9.40;82.79
67275;DHT22;55463;52.324;5.122;2024-03-23T13:54:12;9.70;82.21
67275;DHT22;55463;52.324;5.122;2024-03-23T13:56:37;10.02;82.35
67275;DHT22;55463;52.324;5.122;2024-03-23T13:59:02;10.45;80.99
67275;DHT22;55463;52.324;5.122;2024-03-23T14:01:28;10.91;81.30
67275;DHT22;55463;52.324;5.122;2024-03-23T14:03:55;10.72;77.84
67275;DHT22;55463;52.324;5.122;2024-03-23T14:06:20;10.77;77.34
67275;DHT22;55463;52.324;5.122;2024-03-23T14:08:46;10.96;76.07
67275;DHT22;55463;52.324;5.122;2024-03-23T14:11:11;11.10;76.49
67275;DHT22;55463;52.324;5.122;2024-03-23T14:13:37;11.12;76.30
67275;DHT22;55463;52.324;5.122;2024-03-23T14:16:03;11.40;76.18
67275;DHT22;55463;52.324;5.122;2024-03-23T14:18:29;11.19;74.19
67275;DHT22;55463;52.324;5.122;2024-03-23T14:21:00;11.38;74.66
67275;DHT22;55463;52.324;5.122;2024-03-23T14:23:30;11.31;75.58
67275;DHT22;55463;52.324;5.122;2024-03-23T14:25:59;11.22;75.94
67275;DHT22;55463;52.324;5.122;2024-03-23T14:28:24;11.19;75.79
67275;DHT22;55463;52.324;5.122;2024-03-23T14:30:50;10.91;74.40
67275;DHT22;55463;52.324;5.122;2024-03-23T14:33:17;10.72;75.58
67275;DHT22;55463;52.324;5.122;2024-03-23T14:35:43;10.53;75.96
67275;DHT22;55463;52.324;5.122;2024-03-23T14:38:09;10.39;77.24
67275;DHT22;55463;52.324;5.122;2024-03-23T14:40:34;10.39;75.41
67275;DHT22;55463;52.324;5.122;2024-03-23T14:43:00;10.72;75.71
67275;DHT22;55463;52.324;5.122;2024-03-23T14:45:26;10.81;76.49
67275;DHT22;55463;52.324;5.122;2024-03-23T14:47:51;10.94;75.26
67275;DHT22;55463;52.324;5.122;2024-03-23T14:50:18;11.15;76.10
67275;DHT22;55463;52.324;5.122;2024-03-23T14:52:46;10.89;73.63
67275;DHT22;55463;52.324;5.122;2024-03-23T14:55:12;10.56;73.21
67275;DHT22;55463;52.324;5.122;2024-03-23T14:57:38;10.55;74.03
67275;DHT22;55463;52.324;5.122;2024-03-23T15:00:10;10.36;74.25
67275;DHT22;55463;52.324;5.122;2024-03-23T15:02:39;10.28;75.07
67275;DHT22;55463;52.324;5.122;2024-03-23T15:05:05;10.15;75.49
67275;DHT22;55463;52.324;5.122;2024-03-23T15:07:36;10.22;75.80
67275;DHT22;55463;52.324;5.122;2024-03-23T15:10:02;10.22;75.92
67275;DHT22;55463;52.324;5.122;2024-03-23T15:12:29;10.18;75.90
67275;DHT22;55463;52.324;5.122;2024-03-23T15:14:54;10.44;76.90
67275;DHT22;55463;52.324;5.122;2024-03-23T15:17:20;10.70;77.36
67275;DHT22;55463;52.324;5.122;2024-03-23T15:19:45;10.69;75.53
67275;DHT22;55463;52.324;5.122;2024-03-23T15:22:11;10.64;74.36
67275;DHT22;55463;52.324;5.122;2024-03-23T15:24:36;10.49;71.97
67275;DHT22;55463;52.324;5.122;2024-03-23T15:27:03;10.56;72.77
67275;DHT22;55463;52.324;5.122;2024-03-23T15:29:28;10.76;73.24
67275;DHT22;55463;52.324;5.122;2024-03-23T15:31:54;10.73;73.54
67275;DHT22;55463;52.324;5.122;2024-03-23T15:34:19;10.56;72.20
67275;DHT22;55463;52.324;5.122;2024-03-23T15:36:47;10.55;73.20
67275;DHT22;55463;52.324;5.122;2024-03-23T15:39:14;10.48;74.04
67275;DHT22;55463;52.324;5.122;2024-03-23T15:41:39;10.36;74.49
67275;DHT22;55463;52.324;5.122;2024-03-23T15:44:05;10.29;74.62
67275;DHT22;55463;52.324;5.122;2024-03-23T15:46:31;10.12;73.75
67275;DHT22;55463;52.324;5.122;2024-03-23T15:48:56;9.97;74.16
67275;DHT22;55463;52.324;5.122;2024-03-23T15:51:22;9.84;74.31
67275;DHT22;55463;52.324;5.122;2024-03-23T15:53:47;9.76;75.70
67275;DHT22;55463;52.324;5.122;2024-03-23T15:56:12;9.62;75.46
67275;DHT22;55463;52.324;5.122;2024-03-23T15:58:38;9.57;75.86
67275;DHT22;55463;52.324;5.122;2024-03-23T16:01:06;9.10;78.92
67275;DHT22;55463;52.324;5.122;2024-03-23T16:03:34;8.77;82.68
67275;DHT22;55463;52.324;5.122;2024-03-23T16:06:01;8.65;84.26
67275;DHT22;55463;52.324;5.122;2024-03-23T16:08:26;8.67;85.79
67275;DHT22;55463;52.324;5.122;2024-03-23T16:10:52;8.69;85.25
67275;DHT22;55463;52.324;5.122;2024-03-23T16:13:18;8.76;86.06
67275;DHT22;55463;52.324;5.122;2024-03-23T16:15:44;8.79;85.43
67275;DHT22;55463;52.324;5.122;2024-03-23T16:18:10;8.84;86.34
67275;DHT22;55463;52.324;5.122;2024-03-23T16:20:36;8.84;84.97
67275;DHT22;55463;52.324;5.122;2024-03-23T16:23:02;8.75;84.51
67275;DHT22;55463;52.324;5.122;2024-03-23T16:25:27;8.72;84.21
67275;DHT22;55463;52.324;5.122;2024-03-23T16:27:53;8.73;85.53
67275;DHT22;55463;52.324;5.122;2024-03-23T16:30:19;8.75;85.36
67275;DHT22;55463;52.324;5.122;2024-03-23T16:32:48;8.81;85.29
67275;DHT22;55463;52.324;5.122;2024-03-23T16:35:14;8.75;83.53
67275;DHT22;55463;52.324;5.122;2024-03-23T16:37:40;8.59;81.75
67275;DHT22;55463;52.324;5.122;2024-03-23T16:40:06;8.45;82.42
67275;DHT22;55463;52.324;5.122;2024-03-23T16:42:34;8.31;82.91